Time;durP1;ratioP1;P1;durP2;ratioP2;P2;SDS_P1;SDS_P2;PMS_P1;PMS_P2;Temp;Humidity;BMP_temperature;BMP_pressure;BME280_temperature;BME280_humidity;BME280_pressure;Samples;Min_cycle;Max_cycle;Signal;HPM_P1;HPM_P2
2024/05/01 00:01:07;;;;;;;3.40;1.75;;;22.80;99.90;;;;;;5372353;21;20000;-52
2024/05/01 00:03:33;;;;;;;3.67;1.58;;;22.80;99.90;;;;;;5380483;26;20073;-55
2024/05/01 00:06:00;;;;;;;2.38;1.73;;;22.80;99.90;;;;;;5380866;26;19996;-53
2024/05/01 00:08:26;;;;;;;7.13;2.03;;;22.80;99.90;;;;;;5395171;26;20003;-54
2024/05/01 00:10:51;;;;;;;3.30;1.70;;;22.80;99.90;;;;;;5388007;26;20065;-55
2024/05/01 00:13:17;;;;;;;3.72;1.73;;;22.80;99.90;;;;;;5392081;26;20011;-55
2024/05/01 00:15:43;;;;;;;2.72;1.50;;;22.80;99.90;;;;;;5415673;26;20006;-55
2024/05/01 00:18:09;;;;;;;2.55;1.80;;;22.70;99.90;;;;;;5413049;26;20070;-55
2024/05/01 00:20:35;;;;;;;3.17;1.40;;;22.80;99.90;;;;;;5412827;26;19995;-56
2024/05/01 00:23:01;;;;;;;2.85;1.75;;;22.70;99.90;;;;;;5410366;26;20037;-54
2024/05/01 00:25:26;;;;;;;1.90;1.23;;;22.80;99.90;;;;;;5377813;26;19996;-54
2024/05/01 00:27:52;;;;;;;3.50;1.63;;;22.70;99.90;;;;;;5378667;26;20382;-54
2024/05/01 00:30:18;;;;;;;4.07;1.63;;;22.70;99.90;;;;;;5412970;26;19999;-54
2024/05/01 00:32:44;;;;;;;2.30;2.10;;;22.70;99.90;;;;;;5414365;26;20004;-54
2024/05/01 00:35:09;;;;;;;2.72;1.77;;;22.70;99.90;;;;;;5407352;26;20450;-52
2024/05/01 00:37:35;;;;;;;3.83;1.35;;;22.70;99.90;;;;;;5387211;26;20478;-53
2024/05/01 00:40:01;;;;;;;5.63;1.42;;;22.70;99.90;;;;;;5380738;26;20069;-52
2024/05/01 00:42:27;;;;;;;2.38;1.33;;;22.70;99.90;;;;;;5380794;26;20007;-52
2024/05/01 00:44:52;;;;;;;2.20;1.40;;;22.70;99.90;;;;;;5380883;26;19996;-52
2024/05/01 00:47:18;;;;;;;2.75;1.40;;;22.70;99.90;;;;;;5380395;26;20032;-53
2024/05/01 00:49:44;;;;;;;3.90;1.65;;;22.70;99.90;;;;;;5358508;26;20033;-55
2024/05/01 00:52:10;;;;;;;3.50;1.75;;;22.70;99.90;;;;;;5401143;26;19996;-56
2024/05/01 00:54:36;;;;;;;6.90;1.88;;;22.70;99.90;;;;;;5380623;26;20000;-55
2024/05/01 00:57:03;;;;;;;3.10;1.30;;;22.70;99.90;;;;;;5369499;26;20008;-55
2024/05/01 00:59:29;;;;;;;4.60;1.87;;;22.60;99.90;;;;;;5367199;26;20078;-55
2024/05/01 01:01:56;;;;;;;2.30;1.40;;;22.60;99.90;;;;;;5370395;26;20416;-55
2024/05/01 01:04:23;;;;;;;4.40;1.60;;;22.60;99.90;;;;;;5358003;26;20030;-55
2024/05/01 01:06:50;;;;;;;7.15;1.73;;;22.60;99.90;;;;;;5364470;26;20432;-55
2024/05/01 01:09:17;;;;;;;2.10;1.23;;;22.60;99.90;;;;;;5356985;26;19997;-55
2024/05/01 01:11:54;;;;;;;3.45;1.33;;;22.50;99.90;;;;;;5381337;26;20007;-55
2024/05/01 01:14:20;;;;;;;2.70;1.30;;;22.50;99.90;;;;;;5380085;26;20004;-55
2024/05/01 01:16:46;;;;;;;6.20;1.73;;;22.50;99.90;;;;;;5380644;26;20004;-54
2024/05/01 01:19:16;;;;;;;1.88;1.20;;;22.60;99.90;;;;;;5363623;26;20092;-54
2024/05/01 01:21:42;;;;;;;1.73;1.30;;;22.60;99.90;;;;;;5362076;26;20027;-54
2024/05/01 01:24:08;;;;;;;2.55;1.15;;;22.50;99.90;;;;;;5353910;26;20005;-55
2024/05/01 01:26:33;;;;;;;2.45;1.00;;;22.50;99.90;;;;;;5380214;26;20000;-55
2024/05/01 01:28:59;;;;;;;4.55;1.20;;;22.50;99.90;;;;;;5380663;26;19997;-55
2024/05/01 01:31:25;;;;;;;2.85;1.38;;;22.50;99.90;;;;;;5380259;26;20050;-55
2024/05/01 01:33:51;;;;;;;2.88;1.30;;;22.50;99.90;;;;;;5380556;26;20008;-55
2024/05/01 01:36:16;;;;;;;1.98;1.20;;;22.50;99.90;;;;;;5380171;26;20340;-55
2024/05/01 01:38:42;;;;;;;2.75;1.25;;;22.50;99.90;;;;;;5380463;26;20369;-55
2024/05/01 01:41:08;;;;;;;3.67;1.00;;;22.50;99.90;;;;;;5380684;26;20023;-56
2024/05/01 01:43:34;;;;;;;2.88;1.00;;;22.50;99.90;;;;;;5379766;26;20000;-55
2024/05/01 01:46:00;;;;;;;3.80;1.10;;;22.50;99.90;;;;;;5380034;26;20080;-55
2024/05/01 01:48:25;;;;;;;4.63;1.50;;;22.40;99.90;;;;;;5379996;26;20004;-56
2024/05/01 01:50:51;;;;;;;3.83;1.63;;;22.40;99.90;;;;;;5378493;26;20004;-55
2024/05/01 01:53:17;;;;;;;2.58;1.17;;;22.40;99.90;;;;;;5377102;26;20024;-55
2024/05/01 01:55:43;;;;;;;2.30;1.00;;;22.40;99.90;;;;;;5377192;26;20007;-55
2024/05/01 01:58:09;;;;;;;3.33;1.08;;;22.40;99.90;;;;;;5377411;26;20007;-55
2024/05/01 02:00:34;;;;;;;4.80;0.98;;;22.40;99.90;;;;;;5377265;26;20022;-55
2024/05/01 02:03:03;;;;;;;5.43;1.15;;;22.40;99.90;;;;;;5376522;26;20336;-55
2024/05/01 02:05:30;;;;;;;2.05;1.25;;;22.40;99.90;;;;;;5377546;26;19992;-55
2024/05/01 02:07:55;;;;;;;3.60;1.23;;;22.40;99.90;;;;;;5380431;26;20086;-56
2024/05/01 02:10:21;;;;;;;2.92;1.13;;;22.40;99.90;;;;;;5380471;26;20004;-55
2024/05/01 02:12:47;;;;;;;2.05;1.27;;;22.40;99.90;;;;;;5380425;26;20010;-55
2024/05/01 02:15:13;;;;;;;1.98;1.27;;;22.40;99.90;;;;;;5380397;26;19997;-55
2024/05/01 02:17:38;;;;;;;1.30;0.90;;;22.40;99.90;;;;;;5379778;26;20000;-56
2024/05/01 02:20:07;;;;;;;1.33;0.90;;;22.40;99.90;;;;;;5380041;26;20000;-56
2024/05/01 02:22:36;;;;;;;2.80;1.00;;;22.40;99.90;;;;;;5379983;26;20012;-56
2024/05/01 02:25:02;;;;;;;1.83;0.85;;;22.40;99.90;;;;;;5380009;26;20460;-56
2024/05/01 02:27:28;;;;;;;2.25;1.20;;;22.40;99.90;;;;;;5379853;26;20000;-56
2024/05/01 02:29:54;;;;;;;1.85;1.10;;;22.40;99.90;;;;;;5379824;26;20007;-56
2024/05/01 02:32:20;;;;;;;2.05;1.10;;;22.40;99.90;;;;;;5380000;26;20448;-56
2024/05/01 02:34:45;;;;;;;3.33;1.08;;;22.40;99.90;;;;;;5379769;26;19997;-56
2024/05/01 02:37:11;;;;;;;2.60;1.20;;;22.40;99.90;;;;;;5379617;26;20008;-56
2024/05/01 02:39:37;;;;;;;3.97;0.95;;;22.40;99.90;;;;;;5379370;26;20004;-55
2024/05/01 02:42:03;;;;;;;1.40;0.82;;;22.40;99.90;;;;;;5377713;26;20000;-55
2024/05/01 02:44:30;;;;;;;2.95;0.90;;;22.40;99.90;;;;;;5379494;26;20042;-55
2024/05/01 02:46:56;;;;;;;3.92;1.00;;;22.40;99.90;;;;;;5379379;26;20008;-55
2024/05/01 02:49:22;;;;;;;2.55;1.00;;;22.40;99.90;;;;;;5379581;26;20010;-55
2024/05/01 02:51:47;;;;;;;2.70;1.15;;;22.40;99.90;;;;;;5379269;26;20020;-55
2024/05/01 02:54:13;;;;;;;2.63;1.00;;;22.40;99.90;;;;;;5377666;26;20011;-56
2024/05/01 02:56:39;;;;;;;2.38;0.80;;;22.40;99.90;;;;;;5379092;26;20015;-55
2024/05/01 02:59:06;;;;;;;1.30;0.68;;;22.40;99.90;;;;;;5379139;26;20000;-55
2024/05/01 03:01:32;;;;;;;2.28;0.73;;;22.40;99.90;;;;;;5392421;21;20033;-52
2024/05/01 03:04:00;;;;;;;1.00;0.68;;;22.30;99.90;;;;;;5377965;26;20004;-52
2024/05/01 03:06:26;;;;;;;0.98;0.70;;;22.30;99.90;;;;;;5379768;26;19997;-52
2024/05/01 03:08:53;;;;;;;1.38;0.90;;;22.30;99.90;;;;;;5379480;26;19993;-51
2024/05/01 03:11:18;;;;;;;3.20;0.98;;;22.30;99.90;;;;;;5377656;26;20375;-51
2024/05/01 03:13:44;;;;;;;2.22;0.65;;;22.30;99.90;;;;;;5380033;26;20007;-52
2024/05/01 03:16:10;;;;;;;2.35;0.95;;;22.30;99.90;;;;;;5382733;26;19996;-52
2024/05/01 03:18:36;;;;;;;1.30;0.70;;;22.30;99.90;;;;;;5382721;26;19992;-51
2024/05/01 03:21:02;;;;;;;1.08;0.60;;;22.30;99.90;;;;;;5382717;26;20004;-51
2024/05/01 03:23:28;;;;;;;1.45;0.77;;;22.30;99.90;;;;;;5382934;26;20068;-52
2024/05/01 03:25:56;;;;;;;1.20;0.70;;;22.30;99.90;;;;;;5383050;26;20000;-52
2024/05/01 03:28:22;;;;;;;1.67;0.85;;;22.20;99.90;;;;;;5382805;26;20069;-52
2024/05/01 03:30:47;;;;;;;3.95;1.02;;;22.20;99.90;;;;;;5382584;26;19996;-52
2024/05/01 03:33:13;;;;;;;1.65;0.98;;;22.20;99.90;;;;;;5380889;26;20103;-51
2024/05/01 03:35:39;;;;;;;1.70;0.80;;;22.20;99.90;;;;;;5382753;26;20317;-52
2024/05/01 03:38:05;;;;;;;2.13;0.80;;;22.20;99.90;;;;;;5382613;26;19996;-52
2024/05/01 03:40:31;;;;;;;2.72;0.70;;;22.20;99.90;;;;;;5382451;26;19996;-52
2024/05/01 03:42:56;;;;;;;2.42;1.13;;;22.20;99.90;;;;;;5383114;26;19996;-53
2024/05/01 03:45:22;;;;;;;2.22;0.77;;;22.20;99.90;;;;;;5382540;26;20000;-51
2024/05/01 03:47:48;;;;;;;1.60;0.85;;;22.20;99.90;;;;;;5382548;26;20004;-52
2024/05/01 03:50:14;;;;;;;3.60;1.08;;;22.20;99.90;;;;;;5382437;26;20006;-51
2024/05/01 03:52:41;;;;;;;2.13;0.45;;;22.10;99.90;;;;;;5379860;26;20073;-51
2024/05/01 03:55:07;;;;;;;1.20;0.77;;;22.20;99.90;;;;;;5379188;26;20015;-51
2024/05/01 03:57:33;;;;;;;2.72;0.65;;;22.20;99.90;;;;;;5378844;26;20000;-51
2024/05/01 03:59:59;;;;;;;3.10;0.60;;;22.10;99.90;;;;;;5379266;26;19997;-51
2024/05/01 04:02:24;;;;;;;2.90;1.13;;;22.10;99.90;;;;;;5378514;26;20048;-51
2024/05/01 04:04:50;;;;;;;2.22;0.82;;;22.10;99.90;;;;;;5378731;26;19996;-51
2024/05/01 04:07:16;;;;;;;2.70;1.00;;;22.10;99.90;;;;;;5377207;26;20004;-52
2024/05/01 04:09:44;;;;;;;0.95;0.60;;;22.10;99.90;;;;;;5378623;26;20000;-51
2024/05/01 04:12:10;;;;;;;2.10;0.63;;;22.10;99.90;;;;;;5380394;26;20011;-52
2024/05/01 04:14:36;;;;;;;1.48;0.95;;;22.10;99.90;;;;;;5380505;26;20011;-54
2024/05/01 04:17:03;;;;;;;2.25;1.10;;;22.10;99.90;;;;;;5381968;26;20011;-52
2024/05/01 04:19:29;;;;;;;2.17;0.60;;;22.10;99.90;;;;;;5382348;26;20004;-51
2024/05/01 04:21:55;;;;;;;1.25;0.57;;;22.10;99.90;;;;;;5382203;26;20046;-52
2024/05/01 04:24:21;;;;;;;1.55;0.77;;;22.10;99.90;;;;;;5382344;26;20004;-51
2024/05/01 04:26:48;;;;;;;2.47;1.00;;;22.10;99.90;;;;;;5378907;26;20004;-51
2024/05/01 04:29:13;;;;;;;1.52;0.80;;;22.00;99.90;;;;;;5380065;26;20446;-52
2024/05/01 04:31:39;;;;;;;1.50;0.80;;;22.00;99.90;;;;;;5381747;26;20050;-51
2024/05/01 04:34:05;;;;;;;2.15;0.88;;;22.00;99.90;;;;;;5382177;26;20008;-52
2024/05/01 04:36:31;;;;;;;2.50;1.23;;;22.10;99.90;;;;;;5381935;26;20443;-51
2024/05/01 04:38:57;;;;;;;1.17;0.77;;;22.00;99.90;;;;;;5381664;26;20072;-50
2024/05/01 04:41:22;;;;;;;2.25;0.98;;;22.00;99.90;;;;;;5381405;26;20011;-51
2024/05/01 04:43:48;;;;;;;2.67;1.27;;;22.00;99.90;;;;;;5379404;26;19996;-51
2024/05/01 04:46:14;;;;;;;1.85;0.70;;;22.00;99.90;;;;;;5381572;26;19996;-50
2024/05/01 04:48:40;;;;;;;3.97;0.93;;;22.00;99.90;;;;;;5381664;26;20072;-51
2024/05/01 04:51:05;;;;;;;1.27;0.57;;;22.00;99.90;;;;;;5379669;26;20000;-51
2024/05/01 04:53:31;;;;;;;2.05;1.00;;;22.00;99.90;;;;;;5381784;26;20010;-52
2024/05/01 04:55:57;;;;;;;2.90;0.95;;;22.00;99.90;;;;;;5381419;26;20453;-51
2024/05/01 04:58:22;;;;;;;2.67;0.98;;;22.00;99.90;;;;;;5381687;26;19996;-52
2024/05/01 05:00:48;;;;;;;4.80;1.00;;;22.00;99.90;;;;;;5381533;26;20004;-52
2024/05/01 05:03:14;;;;;;;1.92;1.00;;;22.00;99.90;;;;;;5381519;26;20012;-53
2024/05/01 05:05:40;;;;;;;1.95;0.70;;;22.00;99.90;;;;;;5381231;26;20428;-52
2024/05/01 05:08:06;;;;;;;5.07;1.08;;;22.00;99.90;;;;;;5381249;26;19996;-52
2024/05/01 05:10:31;;;;;;;1.88;0.80;;;22.00;99.90;;;;;;5381287;26;20000;-51
2024/05/01 05:12:57;;;;;;;2.42;0.75;;;22.00;99.90;;;;;;5381162;26;20091;-51
2024/05/01 05:15:23;;;;;;;1.90;0.73;;;21.90;99.90;;;;;;5379212;26;19996;-52
2024/05/01 05:17:49;;;;;;;2.13;0.60;;;21.90;99.90;;;;;;5380846;26;19996;-52
2024/05/01 05:20:15;;;;;;;1.27;0.52;;;21.90;99.90;;;;;;5381145;26;20004;-51
2024/05/01 05:22:40;;;;;;;2.58;0.75;;;22.00;99.90;;;;;;5380793;26;20007;-52
2024/05/01 05:25:07;;;;;;;2.40;1.35;;;21.90;99.90;;;;;;5379086;26;20376;-52
2024/05/01 05:27:33;;;;;;;1.90;0.70;;;21.90;99.90;;;;;;5380862;26;20027;-51
2024/05/01 05:29:59;;;;;;;1.85;0.70;;;21.90;99.90;;;;;;5381011;26;20000;-51
2024/05/01 05:32:25;;;;;;;8.85;0.90;;;21.90;99.90;;;;;;5380958;26;20007;-51
2024/05/01 05:34:50;;;;;;;1.38;0.82;;;21.90;99.90;;;;;;5380919;26;20007;-51
2024/05/01 05:37:16;;;;;;;1.25;0.65;;;21.90;99.90;;;;;;5380047;26;20000;-52
2024/05/01 05:39:42;;;;;;;1.70;1.20;;;21.90;99.90;;;;;;5379263;26;20007;-51
2024/05/01 05:42:09;;;;;;;1.30;0.70;;;21.90;99.90;;;;;;5380558;26;20006;-52
2024/05/01 05:44:34;;;;;;;1.65;0.73;;;21.90;99.90;;;;;;5381004;26;20365;-52
2024/05/01 05:47:00;;;;;;;2.00;0.50;;;21.90;99.90;;;;;;5380467;26;20011;-52
2024/05/01 05:49:26;;;;;;;1.63;0.70;;;21.90;99.90;;;;;;5380375;26;20316;-52
2024/05/01 05:51:52;;;;;;;2.85;0.88;;;21.90;99.90;;;;;;5380337;26;20444;-52
2024/05/01 05:54:17;;;;;;;2.88;0.80;;;21.90;99.90;;;;;;5380310;26;20000;-52
2024/05/01 05:56:43;;;;;;;1.48;0.70;;;21.90;99.90;;;;;;5380279;26;20466;-52
2024/05/01 05:59:09;;;;;;;2.30;0.70;;;21.90;99.90;;;;;;5380025;26;19997;-52
2024/05/01 06:01:35;;;;;;;2.15;0.60;;;21.90;99.90;;;;;;5380565;26;20000;-52
2024/05/01 06:04:01;;;;;;;1.65;0.90;;;21.90;99.90;;;;;;5380298;26;20141;-51
2024/05/01 06:06:26;;;;;;;1.42;0.80;;;21.90;99.90;;;;;;5380036;26;20011;-51
2024/05/01 06:08:52;;;;;;;2.10;0.75;;;21.90;99.90;;;;;;5380429;26;20007;-51
2024/05/01 06:11:18;;;;;;;3.47;0.90;;;21.90;99.90;;;;;;5380223;26;20007;-52
2024/05/01 06:13:44;;;;;;;1.48;0.95;;;21.90;99.90;;;;;;5380021;26;20007;-51
2024/05/01 06:16:09;;;;;;;1.15;0.52;;;21.90;99.90;;;;;;5379854;26;20445;-52
2024/05/01 06:18:36;;;;;;;2.70;0.70;;;21.90;99.90;;;;;;5380253;26;20008;-51
2024/05/01 06:21:02;;;;;;;3.40;0.60;;;21.90;99.90;;;;;;5380145;26;19997;-51
2024/05/01 06:23:28;;;;;;;1.85;0.88;;;21.90;99.90;;;;;;5379887;26;19996;-51
2024/05/01 06:25:55;;;;;;;1.55;0.60;;;21.90;99.90;;;;;;5378025;26;20069;-57
2024/05/01 06:28:21;;;;;;;1.48;0.73;;;21.90;99.90;;;;;;5379870;26;20011;-51
2024/05/01 06:30:47;;;;;;;1.63;0.75;;;21.90;99.90;;;;;;5379999;26;20004;-52
2024/05/01 06:33:12;;;;;;;2.65;0.63;;;21.90;99.90;;;;;;5377898;26;20001;-51
2024/05/01 06:35:38;;;;;;;5.03;1.02;;;21.90;99.90;;;;;;5379975;26;20360;-52
2024/05/01 06:38:04;;;;;;;2.65;0.70;;;21.90;99.90;;;;;;5379738;26;20081;-51
2024/05/01 06:40:30;;;;;;;2.03;0.82;;;21.90;99.90;;;;;;5379645;26;20007;-52
2024/05/01 06:42:55;;;;;;;1.63;0.73;;;21.90;99.90;;;;;;5380155;26;19996;-50
2024/05/01 06:45:21;;;;;;;1.98;0.47;;;21.90;99.90;;;;;;5379883;26;20011;-52
2024/05/01 06:47:47;;;;;;;1.15;0.50;;;21.90;99.90;;;;;;5379519;26;20441;-51
2024/05/01 06:50:13;;;;;;;0.73;0.57;;;21.90;99.90;;;;;;5382300;26;19996;-52
2024/05/01 06:52:38;;;;;;;1.95;0.77;;;21.90;99.90;;;;;;5381576;26;19996;-50
2024/05/01 06:55:06;;;;;;;1.65;0.90;;;21.90;99.90;;;;;;5383214;26;20000;-51
2024/05/01 06:57:35;;;;;;;1.27;0.82;;;21.90;99.90;;;;;;5383149;26;19996;-51
2024/05/01 07:00:01;;;;;;;2.05;0.77;;;21.90;99.90;;;;;;5383436;26;20436;-51
2024/05/01 07:02:27;;;;;;;1.48;0.98;;;21.90;99.90;;;;;;5383076;26;20386;-51
2024/05/01 07:04:53;;;;;;;1.27;0.93;;;21.90;99.90;;;;;;5382805;26;20107;-51
2024/05/01 07:07:19;;;;;;;1.58;0.75;;;21.90;99.90;;;;;;5383008;26;20000;-50
2024/05/01 07:09:44;;;;;;;2.10;0.73;;;21.90;99.90;;;;;;5382767;26;19997;-51
2024/05/01 07:12:10;;;;;;;1.73;0.80;;;21.90;99.90;;;;;;5383118;26;20008;-50
2024/05/01 07:14:36;;;;;;;2.33;0.80;;;21.90;99.90;;;;;;5382953;26;20007;-50
2024/05/01 07:17:02;;;;;;;2.10;0.70;;;21.90;99.90;;;;;;5381350;26;20050;-52
2024/05/01 07:19:29;;;;;;;2.45;1.27;;;21.90;99.90;;;;;;5383063;26;20004;-51
2024/05/01 07:21:55;;;;;;;3.70;0.73;;;21.90;99.90;;;;;;5381114;26;20012;-51
2024/05/01 07:24:20;;;;;;;2.42;0.60;;;21.90;99.90;;;;;;5382880;26;20420;-52
2024/05/01 07:26:46;;;;;;;1.20;0.80;;;21.90;99.90;;;;;;5382869;26;20004;-52
2024/05/01 07:29:12;;;;;;;2.33;0.90;;;21.90;99.90;;;;;;5382986;26;20001;-51
2024/05/01 07:31:38;;;;;;;2.47;0.85;;;21.90;99.90;;;;;;5382719;26;20329;-51
2024/05/01 07:34:03;;;;;;;3.25;1.00;;;21.90;99.90;;;;;;5380908;26;20000;-51
2024/05/01 07:36:29;;;;;;;2.05;0.90;;;21.90;99.90;;;;;;5380665;26;20518;-52
2024/05/01 07:38:55;;;;;;;2.20;0.85;;;21.90;99.90;;;;;;5382560;26;20452;-50
2024/05/01 07:41:21;;;;;;;3.20;0.90;;;21.90;99.90;;;;;;5380817;26;19996;-52
2024/05/01 07:43:47;;;;;;;2.17;1.05;;;21.90;99.90;;;;;;5351538;26;20012;-51
2024/05/01 07:46:12;;;;;;;3.42;0.90;;;21.90;99.90;;;;;;5382796;26;20070;-51
2024/05/01 07:48:38;;;;;;;2.92;0.70;;;22.00;99.90;;;;;;5380924;26;19996;-53
2024/05/01 07:51:04;;;;;;;2.65;1.15;;;22.00;99.90;;;;;;5382589;26;20008;-53
2024/05/01 07:53:30;;;;;;;2.65;0.90;;;22.00;99.90;;;;;;5380656;26;20455;-51
2024/05/01 07:55:56;;;;;;;1.63;0.80;;;22.00;99.90;;;;;;5380458;26;20000;-52
2024/05/01 07:58:22;;;;;;;3.03;0.80;;;22.00;99.90;;;;;;5380612;26;20011;-51
2024/05/01 08:00:47;;;;;;;3.33;0.80;;;22.00;99.90;;;;;;5381889;26;20000;-51
2024/05/01 08:03:13;;;;;;;2.95;0.95;;;22.00;99.90;;;;;;5382544;26;20008;-51
2024/05/01 08:05:39;;;;;;;1.35;1.10;;;22.00;99.90;;;;;;5380686;26;20007;-52
2024/05/01 08:08:05;;;;;;;2.67;1.00;;;22.00;99.90;;;;;;5382210;26;19997;-51
2024/05/01 08:10:31;;;;;;;3.85;1.00;;;22.00;99.90;;;;;;5380336;26;20333;-51
2024/05/01 08:12:57;;;;;;;3.67;1.90;;;22.00;99.90;;;;;;5380311;26;20025;-51
2024/05/01 08:15:23;;;;;;;4.88;1.98;;;22.00;99.90;;;;;;5380994;26;20074;-51
2024/05/01 08:17:49;;;;;;;2.80;1.10;;;22.00;99.90;;;;;;5382399;26;20011;-51
2024/05/01 08:20:14;;;;;;;1.70;0.90;;;22.00;99.90;;;;;;5382344;26;19996;-51
2024/05/01 08:22:40;;;;;;;1.90;1.05;;;22.00;99.90;;;;;;5381748;26;20011;-50
2024/05/01 08:25:06;;;;;;;3.05;1.40;;;22.00;99.90;;;;;;5403711;26;20019;-50
2024/05/01 08:27:32;;;;;;;1.40;1.20;;;22.00;99.90;;;;;;5381805;26;20000;-51
2024/05/01 08:29:57;;;;;;;3.45;1.00;;;22.00;99.90;;;;;;5381733;26;20373;-52
2024/05/01 08:32:23;;;;;;;2.92;1.45;;;22.00;99.90;;;;;;5381700;26;20028;-51
2024/05/01 08:34:49;;;;;;;2.70;1.08;;;22.00;99.90;;;;;;5381660;26;20004;-52
2024/05/01 08:37:16;;;;;;;1.67;1.13;;;22.00;99.90;;;;;;5381688;26;20004;-52
2024/05/01 08:39:41;;;;;;;2.25;1.30;;;22.00;99.90;;;;;;5381444;26;20082;-51
2024/05/01 08:42:08;;;;;;;3.25;1.88;;;22.00;99.90;;;;;;5380023;26;20802;-50
2024/05/01 08:44:34;;;;;;;2.35;1.58;;;22.00;99.90;;;;;;5381150;26;20332;-51
2024/05/01 08:47:03;;;;;;;4.75;1.83;;;22.00;99.90;;;;;;5379324;26;20035;-51
2024/05/01 08:49:29;;;;;;;4.72;2.05;;;22.00;99.90;;;;;;5381259;26;20509;-51
2024/05/01 08:52:02;;;;;;;4.20;2.03;;;22.10;99.90;;;;;;5381004;26;20082;-51
2024/05/01 08:54:28;;;;;;;3.13;1.60;;;22.00;99.90;;;;;;5381311;26;20019;-51
2024/05/01 08:56:56;;;;;;;6.03;1.73;;;22.00;99.90;;;;;;5381113;26;20441;-52
2024/05/01 08:59:22;;;;;;;;;;;22.10;99.90;;;;;;5381351;26;20464;-51
2024/05/01 09:01:48;;;;;;;4.22;1.90;;;22.00;99.90;;;;;;5381000;26;19925;-51
2024/05/01 09:04:16;;;;;;;3.25;1.80;;;22.10;99.90;;;;;;5381072;26;19996;-52
2024/05/01 09:06:51;;;;;;;2.20;2.00;;;22.10;99.90;;;;;;5379226;26;20000;-53
2024/05/01 09:09:17;;;;;;;8.10;1.70;;;22.00;99.90;;;;;;5381460;26;20416;-52
2024/05/01 09:11:47;;;;;;;4.80;1.88;;;22.00;99.90;;;;;;5380037;26;20444;-52
2024/05/01 09:14:12;;;;;;;4.43;2.20;;;22.00;99.90;;;;;;5380729;26;20015;-52
2024/05/01 09:16:44;;;;;;;3.33;1.48;;;22.00;99.90;;;;;;5379342;26;20004;-52
2024/05/01 09:19:10;;;;;;;7.25;2.13;;;22.00;99.90;;;;;;5380501;26;20000;-52
2024/05/01 09:21:39;;;;;;;4.50;2.03;;;22.00;99.90;;;;;;5379955;26;20012;-52
2024/05/01 09:24:08;;;;;;;3.05;1.73;;;22.00;99.90;;;;;;5378992;26;20016;-51
2024/05/01 09:26:34;;;;;;;3.35;1.98;;;22.00;99.90;;;;;;5379935;26;20078;-51
2024/05/01 09:29:02;;;;;;;3.95;1.90;;;22.00;99.90;;;;;;5378374;26;20030;-51
2024/05/01 09:31:28;;;;;;;3.38;1.83;;;22.00;99.90;;;;;;5380188;26;20000;-50
2024/05/01 09:33:56;;;;;;;5.00;1.80;;;22.00;99.90;;;;;;5379961;26;20012;-51
2024/05/01 09:36:22;;;;;;;4.43;1.75;;;22.00;99.90;;;;;;5379691;26;20014;-51
2024/05/01 09:38:55;;;;;;;3.80;1.92;;;22.00;99.90;;;;;;5378536;26;20015;-51
2024/05/01 09:41:23;;;;;;;5.15;1.77;;;22.10;99.90;;;;;;5380915;26;20066;-50
2024/05/01 09:43:54;;;;;;;8.35;2.10;;;22.10;99.90;;;;;;5380050;26;20075;-52
2024/05/01 09:46:24;;;;;;;3.03;1.77;;;22.10;99.90;;;;;;5380083;26;20009;-54
2024/05/01 09:48:51;;;;;;;4.53;2.33;;;22.10;99.90;;;;;;5379817;26;20012;-50
2024/05/01 09:51:18;;;;;;;5.50;1.70;;;22.10;99.90;;;;;;5379735;26;20000;-54
2024/05/01 09:53:47;;;;;;;;;;;22.10;99.90;;;;;;5380088;26;20000;-54
2024/05/01 09:56:16;;;;;;;3.78;1.45;;;22.20;99.90;;;;;;5377099;26;19933;-53
2024/05/01 09:58:43;;;;;;;7.05;1.70;;;22.10;99.90;;;;;;5378369;26;20000;-52
2024/05/01 10:01:11;;;;;;;3.47;1.63;;;22.20;99.90;;;;;;5376638;26;20073;-51
2024/05/01 10:03:41;;;;;;;3.45;1.90;;;22.10;99.90;;;;;;5378702;26;20019;-52
2024/05/01 10:06:08;;;;;;;4.38;1.45;;;22.10;99.90;;;;;;5379161;26;20436;-53
2024/05/01 10:08:34;;;;;;;4.20;1.40;;;22.20;99.90;;;;;;5366499;26;20305;-51
2024/05/01 10:11:05;;;;;;;2.17;1.10;;;22.20;99.90;;;;;;5344485;26;20001;-51
2024/05/01 10:13:33;;;;;;;3.92;1.55;;;22.10;99.90;;;;;;5344153;26;20063;-50
2024/05/01 10:16:03;;;;;;;3.00;1.27;;;22.10;99.90;;;;;;5344390;26;20001;-51
2024/05/01 10:18:29;;;;;;;2.00;1.02;;;22.20;99.90;;;;;;5344358;26;20078;-50
2024/05/01 10:21:08;;;;;;;5.50;1.95;;;22.20;99.90;;;;;;5344021;26;20514;-52
2024/05/01 10:23:34;;;;;;;3.00;1.15;;;22.10;99.90;;;;;;5356298;26;20028;-50
2024/05/01 10:26:06;;;;;;;4.63;1.20;;;22.10;99.90;;;;;;5363662;26;20452;-50
2024/05/01 10:28:34;;;;;;;5.63;1.88;;;22.10;99.90;;;;;;5366852;26;20014;-50
2024/05/01 10:31:08;;;;;;;4.20;1.33;;;22.10;99.90;;;;;;5365858;26;20017;-51
2024/05/01 10:33:33;;;;;;;6.28;1.58;;;22.10;99.90;;;;;;5356968;26;20033;-51
2024/05/01 10:36:11;;;;;;;4.82;1.10;;;22.20;99.90;;;;;;5347782;26;20019;-49
2024/05/01 10:38:38;;;;;;;5.00;1.50;;;22.10;99.90;;;;;;5346875;26;20001;-55
2024/05/01 10:41:25;;;;;;;2.85;1.27;;;22.10;99.90;;;;;;5347267;26;20017;-50
2024/05/01 10:43:53;;;;;;;8.73;2.20;;;22.10;99.90;;;;;;5358094;26;20024;-48
2024/05/01 10:46:19;;;;;;;4.88;1.77;;;22.20;99.90;;;;;;5382857;26;20413;-49
2024/05/01 10:48:46;;;;;;;10.07;1.95;;;22.20;99.90;;;;;;5351320;26;20020;-49
2024/05/01 10:51:12;;;;;;;3.10;1.48;;;22.20;99.90;;;;;;5346037;26;20001;-47
2024/05/01 10:53:40;;;;;;;4.65;2.00;;;22.20;99.90;;;;;;5347316;26;20012;-48
2024/05/01 10:56:07;;;;;;;3.72;1.70;;;22.10;99.90;;;;;;5355902;26;20476;-50
2024/05/01 10:58:33;;;;;;;6.07;2.10;;;22.20;99.90;;;;;;5346385;26;20007;-50
2024/05/01 11:01:00;;;;;;;3.78;1.52;;;22.20;99.90;;;;;;5346888;26;20016;-50
2024/05/01 11:03:26;;;;;;;4.75;1.85;;;22.20;99.90;;;;;;5346438;26;20001;-50
2024/05/01 11:05:54;;;;;;;5.27;1.93;;;22.20;99.90;;;;;;5348373;26;20001;-48
2024/05/01 11:08:24;;;;;;;5.90;1.63;;;22.20;99.90;;;;;;5347139;26;20017;-48
2024/05/01 11:10:51;;;;;;;4.07;1.77;;;22.20;99.90;;;;;;5346780;26;20464;-49
2024/05/01 11:13:17;;;;;;;2.50;1.65;;;22.20;99.90;;;;;;5346713;26;20012;-54
2024/05/01 11:15:43;;;;;;;4.60;1.55;;;22.20;99.90;;;;;;5346611;26;20016;-49
2024/05/01 11:18:12;;;;;;;4.72;2.20;;;22.20;99.90;;;;;;5346682;26;20001;-50
2024/05/01 11:20:38;;;;;;;6.03;1.95;;;22.20;99.90;;;;;;5346717;26;20005;-50
2024/05/01 11:23:08;;;;;;;3.65;1.90;;;22.20;99.90;;;;;;5346930;26;20048;-49
2024/05/01 11:25:34;;;;;;;3.78;1.65;;;22.10;99.90;;;;;;5345364;26;20019;-50
2024/05/01 11:28:00;;;;;;;1.95;1.60;;;22.20;99.90;;;;;;5347198;26;20019;-50
2024/05/01 11:30:26;;;;;;;7.68;2.30;;;22.10;99.90;;;;;;5352102;26;20073;-52
2024/05/01 11:32:52;;;;;;;6.90;2.65;;;22.10;99.90;;;;;;5356091;26;20503;-54
2024/05/01 11:35:18;;;;;;;6.30;2.25;;;22.10;99.90;;;;;;5346406;26;20020;-53
2024/05/01 11:37:44;;;;;;;2.70;1.10;;;22.10;99.90;;;;;;5346730;26;20012;-52
2024/05/01 11:40:15;;;;;;;5.63;1.33;;;22.10;99.90;;;;;;5347290;26;20108;-53
2024/05/01 11:42:41;;;;;;;6.97;1.27;;;22.00;99.90;;;;;;5376622;26;19996;-53
2024/05/01 11:45:07;;;;;;;2.50;0.93;;;22.00;99.90;;;;;;5415351;26;20072;-54
2024/05/01 11:47:33;;;;;;;7.65;1.25;;;22.00;99.90;;;;;;5380054;26;20030;-53
2024/05/01 11:49:59;;;;;;;3.55;1.08;;;21.90;99.90;;;;;;5382305;26;20000;-54
2024/05/01 11:52:25;;;;;;;3.95;0.80;;;21.90;99.90;;;;;;5381038;26;20015;-53
2024/05/01 11:54:51;;;;;;;6.03;1.10;;;21.90;99.90;;;;;;5382166;26;20016;-51
2024/05/01 11:57:17;;;;;;;5.18;1.90;;;21.90;99.90;;;;;;5381534;26;20008;-52
2024/05/01 11:59:43;;;;;;;5.15;1.67;;;21.90;99.90;;;;;;5380971;26;20088;-50
2024/05/01 12:02:10;;;;;;;6.30;1.48;;;22.00;99.90;;;;;;5380528;26;20413;-52
2024/05/01 12:04:36;;;;;;;4.43;1.63;;;22.00;99.90;;;;;;5380120;26;20004;-53
2024/05/01 12:07:13;;;;;;;3.63;1.30;;;22.00;99.90;;;;;;5379979;26;20011;-53
2024/05/01 12:09:43;;;;;;;6.15;2.08;;;22.00;99.90;;;;;;5377380;26;20078;-51
2024/05/01 12:12:10;;;;;;;3.90;2.20;;;22.00;99.90;;;;;;5380875;26;20000;-51
2024/05/01 12:14:36;;;;;;;8.13;2.80;;;22.00;99.90;;;;;;5378799;26;20028;-52
2024/05/01 12:17:01;;;;;;;5.00;2.72;;;22.10;99.90;;;;;;5378457;26;21429;-55
2024/05/01 12:19:27;;;;;;;4.35;2.58;;;22.10;99.90;;;;;;5381547;26;20016;-54
2024/05/01 12:21:54;;;;;;;4.28;3.00;;;22.10;99.90;;;;;;5380427;26;20434;-50
2024/05/01 12:24:22;;;;;;;3.72;2.90;;;22.10;99.90;;;;;;5377540;26;20036;-51
2024/05/01 12:26:50;;;;;;;5.95;3.25;;;22.20;99.90;;;;;;5365070;26;20042;-53
2024/05/01 12:29:28;;;;;;;7.53;4.00;;;22.20;99.90;;;;;;5371524;26;20384;-52
2024/05/01 12:31:54;;;;;;;6.28;3.55;;;22.20;99.90;;;;;;5350141;26;20014;-52
2024/05/01 12:34:41;;;;;;;7.03;3.70;;;22.30;99.90;;;;;;5371277;26;20036;-51
2024/05/01 12:37:36;;;;;;;8.37;4.70;;;22.30;99.90;;;;;;5398817;26;20011;-51
2024/05/01 12:40:22;;;;;;;10.75;6.55;;;22.30;99.90;;;;;;5395637;26;19996;-51
2024/05/01 12:42:50;;;;;;;19.63;7.65;;;22.30;99.90;;;;;;5395359;26;20023;-51
2024/05/01 12:45:38;;;;;;;12.63;7.22;;;22.40;99.90;;;;;;5413071;26;19999;-51